Time;durP1;ratioP1;P1;durP2;ratioP2;P2;SDS_P1;SDS_P2;PMS_P1;PMS_P2;Temp;Humidity;BMP_temperature;BMP_pressure;BME280_temperature;BME280_humidity;BME280_pressure;Samples;Min_cycle;Max_cycle;Signal;HPM_P1;HPM_P2
2023/03/07 00:01:34;;;;;;;4.63;3.63;;;;;;;3.60;100.00;99899.94;5114254;27;20097;-53
2023/03/07 00:04:00;;;;;;;4.32;3.33;;;;;;;3.59;100.00;99900.88;5113419;28;20032;-55
2023/03/07 00:06:25;;;;;;;3.78;3.33;;;;;;;3.57;100.00;99894.88;5114604;27;20024;-53
2023/03/07 00:08:53;;;;;;;3.60;3.30;;;;;;;3.56;100.00;99905.47;5096080;28;20031;-54
2023/03/07 00:11:18;;;;;;;2.90;2.70;;;;;;;3.52;100.00;99899.56;5113346;28;20051;-54
2023/03/07 00:13:44;;;;;;;2.30;2.20;;;;;;;3.47;100.00;99897.22;5113888;28;20043;-54
2023/03/07 00:16:12;;;;;;;3.55;2.30;;;;;;;3.42;100.00;99890.59;5113918;27;20028;-55
2023/03/07 00:18:37;;;;;;;2.50;2.30;;;;;;;3.39;100.00;99890.78;5113658;28;20100;-57
2023/03/07 00:21:06;;;;;;;2.33;2.13;;;;;;;3.33;100.00;99884.97;5113518;28;20019;-54
2023/03/07 00:23:33;;;;;;;2.83;2.13;;;;;;;3.32;100.00;99885.06;5113882;28;20016;-55
2023/03/07 00:26:10;;;;;;;2.80;2.10;;;;;;;3.31;100.00;99878.97;5108480;28;20414;-52
2023/03/07 00:28:36;;;;;;;2.17;1.98;;;;;;;3.29;100.00;99880.84;5109282;27;20027;-53
2023/03/07 00:31:04;;;;;;;2.13;2.03;;;;;;;3.25;100.00;99875.88;5107279;28;20072;-53
2023/03/07 00:33:29;;;;;;;2.92;2.15;;;;;;;3.25;100.00;99868.03;5107558;28;20028;-56
2023/03/07 00:36:04;;;;;;;2.00;1.90;;;;;;;3.27;100.00;99871.38;5107600;27;20103;-53
2023/03/07 00:38:31;;;;;;;3.25;1.90;;;;;;;3.23;100.00;99868.09;5113143;27;20397;-55
2023/03/07 00:41:01;;;;;;;1.95;1.85;;;;;;;3.21;100.00;99867.34;5113495;28;20048;-56
2023/03/07 00:43:27;;;;;;;1.90;1.80;;;;;;;3.22;100.00;99861.16;5110407;28;20088;-53
2023/03/07 00:45:53;;;;;;;2.63;2.08;;;;;;;3.23;100.00;99864.63;5113175;27;20114;-54
2023/03/07 00:48:18;;;;;;;2.20;2.00;;;;;;;3.21;100.00;99862.09;5112813;28;20150;-53
2023/03/07 00:50:44;;;;;;;1.85;1.75;;;;;;;3.22;100.00;99868.19;5113292;28;20027;-54
2023/03/07 00:53:10;;;;;;;2.10;1.92;;;;;;;3.23;100.00;99865.50;5114056;27;20027;-53
2023/03/07 00:55:35;;;;;;;2.42;2.03;;;;;;;3.22;100.00;99863.78;5113929;27;20023;-53
2023/03/07 00:58:00;;;;;;;1.95;1.85;;;;;;;3.22;100.00;99860.34;5112207;28;20114;-55
2023/03/07 01:00:26;;;;;;;2.50;2.30;;;;;;;3.21;100.00;99851.59;5113588;27;20020;-54
2023/03/07 01:02:51;;;;;;;2.70;2.50;;;;;;;3.23;100.00;99856.75;5112826;27;20389;-54
2023/03/07 01:05:16;;;;;;;3.03;2.70;;;;;;;3.21;100.00;99854.22;5110961;27;20028;-54
2023/03/07 01:07:41;;;;;;;2.92;2.63;;;;;;;3.23;100.00;99859.38;5113103;28;20024;-55
2023/03/07 01:10:08;;;;;;;2.90;2.70;;;;;;;3.21;100.00;99854.22;5113407;27;20024;-57
2023/03/07 01:12:34;;;;;;;3.65;3.00;;;;;;;3.22;100.00;99847.22;5112365;28;20062;-55
2023/03/07 01:14:59;;;;;;;3.10;2.90;;;;;;;3.23;100.00;99847.13;5113080;28;20378;-53
2023/03/07 01:17:24;;;;;;;3.60;3.28;;;;;;;3.23;100.00;99844.50;5099688;28;20044;-57
2023/03/07 01:19:49;;;;;;;3.63;3.30;;;;;;;3.24;100.00;99846.16;5112686;28;20031;-56
2023/03/07 01:22:15;;;;;;;3.75;3.33;;;;;;;3.24;100.00;99833.03;5112876;28;20028;-54
2023/03/07 01:24:40;;;;;;;3.95;3.65;;;;;;;3.26;100.00;99836.41;5110993;27;20028;-53
2023/03/07 01:27:05;;;;;;;3.42;3.15;;;;;;;3.27;100.00;99832.03;5112939;28;20465;-54
2023/03/07 01:29:31;;;;;;;3.83;3.53;;;;;;;3.28;100.00;99831.94;5112402;27;20032;-53
2023/03/07 01:31:56;;;;;;;3.85;3.55;;;;;;;3.29;100.00;99823.09;5112666;28;20497;-53
2023/03/07 01:34:22;;;;;;;4.78;4.00;;;;;;;3.29;100.00;99828.34;5112252;28;20473;-54
2023/03/07 01:36:47;;;;;;;5.10;4.20;;;;;;;3.30;100.00;99826.59;5105562;28;20031;-55
2023/03/07 01:39:15;;;;;;;4.45;3.88;;;;;;;3.30;100.00;99819.53;5112135;28;20030;-53
2023/03/07 01:41:42;;;;;;;4.97;4.57;;;;;;;3.32;100.00;99819.44;5111814;28;20043;-56
2023/03/07 01:44:16;;;;;;;4.55;4.15;;;;;;;3.31;100.00;99818.63;5112402;28;20027;-56
2023/03/07 01:46:48;;;;;;;5.13;4.53;;;;;;;3.32;100.00;99811.56;5111516;28;20035;-54
2023/03/07 01:49:36;;;;;;;6.40;4.85;;;;;;;3.34;100.00;99810.53;5112425;28;20024;-56
2023/03/07 01:52:07;;;;;;;5.87;5.20;;;;;;;3.36;100.00;99822.72;5112405;28;20038;-53
2023/03/07 01:54:37;;;;;;;5.13;4.70;;;;;;;3.32;100.00;99807.16;5111327;27;20031;-56
2023/03/07 01:57:03;;;;;;;5.93;5.32;;;;;;;3.33;100.00;99810.63;5106854;28;20547;-56
2023/03/07 01:59:35;;;;;;;6.15;5.55;;;;;;;3.33;100.00;99808.84;5112977;28;20102;-55
2023/03/07 02:02:06;;;;;;;5.75;5.05;;;;;;;3.32;100.00;99807.16;5112370;28;20072;-56
2023/03/07 02:04:57;;;;;;;6.75;5.75;;;;;;;3.35;100.00;99808.75;5112117;28;20034;-57
2023/03/07 02:07:30;;;;;;;6.40;5.75;;;;;;;3.33;100.00;99803.59;5111740;28;20028;-57
2023/03/07 02:09:57;;;;;;;7.78;5.70;;;;;;;3.34;100.00;99804.44;5111550;28;20538;-56
2023/03/07 02:12:22;;;;;;;6.30;5.70;;;;;;;3.35;100.00;99803.50;5111412;28;20038;-56
2023/03/07 02:14:49;;;;;;;6.32;5.72;;;;;;;3.32;100.00;99791.41;5112034;28;20099;-57
2023/03/07 02:17:15;;;;;;;6.40;5.43;;;;;;;3.32;100.00;99798.44;5114712;28;20118;-56
2023/03/07 02:20:08;;;;;;;6.18;5.47;;;;;;;3.33;100.00;99789.63;5108987;28;20381;-55
2023/03/07 02:22:33;;;;;;;5.07;4.68;;;;;;;3.32;100.00;99793.19;5104485;27;20047;-54
2023/03/07 02:25:04;;;;;;;5.90;5.30;;;;;;;3.31;100.00;99789.75;5108586;27;20093;-53
2023/03/07 02:27:33;;;;;;;6.00;5.43;;;;;;;3.32;100.00;99790.59;5116148;27;20047;-53
2023/03/07 02:29:58;;;;;;;5.65;5.05;;;;;;;3.33;100.00;99787.88;5115984;28;20102;-57
2023/03/07 02:32:24;;;;;;;5.10;4.60;;;;;;;3.33;100.00;99784.38;5116143;27;20044;-54
2023/03/07 02:34:49;;;;;;;4.78;4.38;;;;;;;3.32;100.00;99782.72;5111951;27;20112;-56
2023/03/07 02:37:26;;;;;;;5.70;4.90;;;;;;;3.31;100.00;99778.38;5111633;27;20112;-55
2023/03/07 02:39:53;;;;;;;5.05;4.53;;;;;;;3.31;100.00;99770.50;5112094;27;20485;-57
2023/03/07 02:42:27;;;;;;;5.15;4.65;;;;;;;3.31;100.00;99774.00;5117312;27;20744;-57
2023/03/07 02:44:58;;;;;;;4.97;4.47;;;;;;;3.30;100.00;99761.81;5116051;27;20474;-54
2023/03/07 02:47:23;;;;;;;4.95;4.28;;;;;;;3.32;100.00;99772.22;5116392;27;20114;-57
2023/03/07 02:49:49;;;;;;;4.97;4.38;;;;;;;3.30;100.00;99769.69;5116928;27;20098;-55
2023/03/07 02:52:14;;;;;;;5.13;4.47;;;;;;;3.29;100.00;99770.59;5116460;27;20031;-55
2023/03/07 02:54:39;;;;;;;4.88;4.35;;;;;;;3.28;100.00;99768.94;5115397;28;20024;-54
2023/03/07 02:57:05;;;;;;;4.95;4.50;;;;;;;3.28;100.00;99770.69;5108715;27;20021;-54
2023/03/07 02:59:30;;;;;;;6.22;4.30;;;;;;;3.28;100.00;99768.94;5113824;27;20059;-56
2023/03/07 03:01:57;;;;;;;6.28;4.75;;;;;;;3.28;100.00;99760.22;5105624;27;20065;-57
2023/03/07 03:04:22;;;;;;;4.75;4.35;;;;;;;3.27;100.00;99762.00;5110052;27;20106;-57
2023/03/07 03:06:47;;;;;;;5.18;4.68;;;;;;;3.27;100.00;99758.53;5116086;27;20069;-57
2023/03/07 03:09:13;;;;;;;5.65;4.72;;;;;;;3.25;100.00;99757.81;5115361;27;20481;-56
2023/03/07 03:11:38;;;;;;;4.80;4.40;;;;;;;3.24;100.00;99759.56;5115777;28;20034;-55
2023/03/07 03:14:03;;;;;;;6.85;4.55;;;;;;;3.25;100.00;99769.13;5115442;27;20446;-57
2023/03/07 03:16:28;;;;;;;5.60;5.03;;;;;;;3.23;100.00;99757.03;5115513;27;20027;-56
2023/03/07 03:18:54;;;;;;;5.05;4.55;;;;;;;3.24;100.00;99762.19;5114772;27;20023;-57
2023/03/07 03:21:19;;;;;;;5.45;4.95;;;;;;;3.23;100.00;99754.41;5115700;27;20033;-57
2023/03/07 03:23:44;;;;;;;5.97;4.88;;;;;;;3.24;100.00;99761.34;5114923;27;20474;-54
2023/03/07 03:26:10;;;;;;;6.85;4.90;;;;;;;3.22;100.00;99756.19;5115491;27;20470;-56
2023/03/07 03:28:37;;;;;;;7.25;5.38;;;;;;;3.22;100.00;99753.56;5114537;27;20065;-56
2023/03/07 03:31:05;;;;;;;6.65;5.10;;;;;;;3.23;100.00;99752.66;5097636;27;20470;-54
2023/03/07 03:33:31;;;;;;;5.63;5.13;;;;;;;3.23;100.00;99754.41;5110296;28;20367;-54
2023/03/07 03:35:57;;;;;;;5.82;5.05;;;;;;;3.23;100.00;99755.28;5115659;27;20041;-58
2023/03/07 03:38:23;;;;;;;6.72;5.40;;;;;;;3.22;100.00;99748.31;5111848;27;20062;-56
2023/03/07 03:40:48;;;;;;;6.50;5.75;;;;;;;3.22;100.00;99753.56;5108043;27;20076;-55
2023/03/07 03:43:14;;;;;;;5.82;5.10;;;;;;;3.21;100.00;99749.25;5113811;27;20028;-57
2023/03/07 03:45:39;;;;;;;5.82;5.22;;;;;;;3.20;100.00;99738.84;5104940;28;20131;-55
2023/03/07 03:48:06;;;;;;;5.65;5.00;;;;;;;3.19;100.00;99731.94;5115016;27;20028;-59
2023/03/07 03:50:31;;;;;;;7.82;5.53;;;;;;;3.19;100.00;99730.16;5115095;27;20362;-55
2023/03/07 03:52:58;;;;;;;6.82;5.10;;;;;;;3.18;100.00;99733.75;5114224;27;20046;-57
2023/03/07 03:55:24;;;;;;;6.88;4.90;;;;;;;3.18;100.00;99730.25;5109612;28;20038;-57
2023/03/07 03:57:49;;;;;;;6.70;5.45;;;;;;;3.18;100.00;99727.63;5104023;28;20040;-56
2023/03/07 04:00:18;;;;;;;8.60;5.38;;;;;;;3.19;100.00;99719.66;5113114;28;20030;-57
2023/03/07 04:02:44;;;;;;;6.15;5.20;;;;;;;3.19;100.00;99716.19;5116466;27;20413;-55
2023/03/07 04:05:10;;;;;;;5.70;5.20;;;;;;;3.18;100.00;99709.25;5114503;28;20035;-57
2023/03/07 04:07:35;;;;;;;5.45;4.72;;;;;;;3.18;100.00;99709.25;5115770;27;20676;-58
2023/03/07 04:10:00;;;;;;;5.72;4.97;;;;;;;3.18;100.00;99701.38;5114290;28;20028;-55
2023/03/07 04:12:26;;;;;;;5.97;4.88;;;;;;;3.19;100.00;99705.72;5113381;28;20072;-55
2023/03/07 04:14:51;;;;;;;6.03;5.03;;;;;;;3.18;100.00;99699.63;5114081;28;20273;-56
2023/03/07 04:17:16;;;;;;;5.07;4.43;;;;;;;3.19;100.00;99695.22;5114290;28;20041;-57
2023/03/07 04:19:41;;;;;;;5.50;4.80;;;;;;;3.17;100.00;99692.69;5121308;27;20396;-57
2023/03/07 04:22:07;;;;;;;5.15;4.53;;;;;;;3.17;100.00;99689.22;5114436;27;20466;-58
2023/03/07 04:24:32;;;;;;;6.93;4.60;;;;;;;3.17;100.00;99684.81;5114568;27;20015;-58
2023/03/07 04:26:57;;;;;;;6.32;4.35;;;;;;;3.17;100.00;99687.44;5113810;28;20164;-58
2023/03/07 04:29:23;;;;;;;4.90;4.50;;;;;;;3.17;100.00;99687.44;5114223;27;20031;-57
2023/03/07 04:31:48;;;;;;;4.53;4.13;;;;;;;3.17;100.00;99681.34;5114519;27;20031;-56
2023/03/07 04:34:13;;;;;;;6.32;4.30;;;;;;;3.15;100.00;99682.28;5098754;28;20090;-57
2023/03/07 04:36:38;;;;;;;5.55;4.88;;;;;;;3.15;100.00;99679.66;5112445;28;20039;-56
2023/03/07 04:39:04;;;;;;;4.50;4.10;;;;;;;3.16;100.00;99683.13;5097463;28;20518;-58
2023/03/07 04:41:29;;;;;;;5.78;4.07;;;;;;;3.15;100.00;99670.97;5113045;27;20044;-58
2023/03/07 04:43:54;;;;;;;4.82;4.30;;;;;;;3.14;100.00;99670.09;5114044;27;20083;-58
2023/03/07 04:46:19;;;;;;;5.88;4.57;;;;;;;3.13;100.00;99670.19;5115357;27;20027;-58
2023/03/07 04:48:45;;;;;;;4.90;4.45;;;;;;;3.13;100.00;99671.06;5114735;27;20027;-58
2023/03/07 04:51:11;;;;;;;5.43;4.28;;;;;;;3.12;100.00;99671.97;5115168;27;20101;-57
2023/03/07 04:53:37;;;;;;;6.82;4.53;;;;;;;3.11;100.00;99669.47;5085828;28;20036;-58
2023/03/07 04:56:05;;;;;;;5.53;4.95;;;;;;;3.11;100.00;99667.69;5103030;27;20062;-57
2023/03/07 04:58:31;;;;;;;5.50;4.25;;;;;;;3.11;100.00;99661.59;5107706;27;20027;-58
2023/03/07 05:00:57;;;;;;;5.35;4.45;;;;;;;3.12;100.00;99661.50;5114082;27;20028;-58
2023/03/07 05:03:24;;;;;;;6.78;5.07;;;;;;;3.12;100.00;99668.53;5107757;27;20027;-57
2023/03/07 05:05:49;;;;;;;6.07;4.80;;;;;;;3.11;100.00;99661.59;5115212;27;20027;-58
2023/03/07 05:08:14;;;;;;;7.75;5.30;;;;;;;3.10;100.00;99665.16;5114717;27;20035;-57
2023/03/07 05:10:40;;;;;;;6.07;4.95;;;;;;;3.10;100.00;99658.13;5107253;27;20031;-57
2023/03/07 05:13:06;;;;;;;6.30;4.90;;;;;;;3.11;100.00;99658.97;5114512;27;20023;-58
2023/03/07 05:15:32;;;;;;;5.20;4.55;;;;;;;3.09;100.00;99653.81;5113651;27;20081;-57
2023/03/07 05:17:58;;;;;;;8.30;5.10;;;;;;;3.10;100.00;99663.38;5112957;28;20484;-58
2023/03/07 05:20:23;;;;;;;6.85;4.97;;;;;;;3.11;100.00;99654.56;5112293;28;20096;-58
2023/03/07 05:22:49;;;;;;;5.13;4.38;;;;;;;3.12;100.00;99652.78;5112737;28;20038;-57
2023/03/07 05:25:14;;;;;;;6.38;4.85;;;;;;;3.11;100.00;99644.09;5108464;27;20051;-58
2023/03/07 05:27:39;;;;;;;6.95;5.20;;;;;;;3.11;100.00;99637.97;5114091;27;20066;-54
2023/03/07 05:30:05;;;;;;;7.20;5.10;;;;;;;3.12;100.00;99626.56;5114588;27;20019;-57
2023/03/07 05:32:31;;;;;;;7.45;4.93;;;;;;;3.11;100.00;99630.09;5114127;27;20024;-56
2023/03/07 05:34:57;;;;;;;6.25;4.90;;;;;;;3.10;100.00;99624.03;5114363;27;20036;-58
2023/03/07 05:37:22;;;;;;;7.30;4.72;;;;;;;3.12;100.00;99626.56;5116615;27;20016;-55
2023/03/07 05:39:47;;;;;;;5.45;4.82;;;;;;;3.12;100.00;99622.13;5111104;28;20401;-57
2023/03/07 05:42:14;;;;;;;9.13;5.20;;;;;;;3.14;100.00;99625.50;5112240;28;20068;-57
2023/03/07 05:44:39;;;;;;;7.00;5.55;;;;;;;3.15;100.00;99626.34;5113895;27;20096;-56
2023/03/07 05:47:05;;;;;;;7.78;5.40;;;;;;;3.15;100.00;99627.19;5111659;28;20031;-57
2023/03/07 05:49:30;;;;;;;6.78;5.15;;;;;;;3.15;100.00;99627.19;5112980;28;20031;-57
2023/03/07 05:51:55;;;;;;;6.60;5.63;;;;;;;3.16;100.00;99625.41;5113710;27;20107;-58
2023/03/07 05:54:21;;;;;;;8.93;5.30;;;;;;;3.15;100.00;99621.09;5114699;27;20497;-58
2023/03/07 05:56:46;;;;;;;6.88;5.40;;;;;;;3.14;100.00;99620.25;5111650;28;20031;-57
2023/03/07 05:59:14;;;;;;;7.35;5.55;;;;;;;3.13;100.00;99623.84;5112408;28;20104;-57
2023/03/07 06:01:40;;;;;;;6.70;5.57;;;;;;;3.12;100.00;99619.50;5112537;28;20016;-55
2023/03/07 06:04:05;;;;;;;5.70;5.07;;;;;;;3.11;100.00;99611.75;5112625;28;20389;-57
2023/03/07 06:06:31;;;;;;;7.28;5.53;;;;;;;3.11;100.00;99622.22;5111677;28;20040;-57
2023/03/07 06:08:56;;;;;;;5.93;5.22;;;;;;;3.08;100.00;99619.81;5111971;28;20084;-56
2023/03/07 06:11:22;;;;;;;6.18;5.15;;;;;;;3.08;100.00;99627.69;5112740;28;20063;-56
2023/03/07 06:13:47;;;;;;;5.97;4.85;;;;;;;3.07;100.00;99618.97;5111877;28;20046;-56
2023/03/07 06:16:12;;;;;;;6.28;4.90;;;;;;;3.06;100.00;99622.53;5112568;28;20023;-58
2023/03/07 06:18:38;;;;;;;8.50;5.28;;;;;;;3.07;100.00;99626.00;5111664;28;20044;-58
2023/03/07 06:21:05;;;;;;;6.50;5.47;;;;;;;3.06;100.00;99619.06;5113622;28;20031;-57
2023/03/07 06:23:33;;;;;;;6.70;5.30;;;;;;;3.06;100.00;99613.81;5112520;28;20030;-59
2023/03/07 06:26:00;;;;;;;6.55;5.40;;;;;;;3.07;100.00;99626.00;5112607;28;20032;-57
2023/03/07 06:28:25;;;;;;;7.03;4.93;;;;;;;3.06;100.00;99638.25;5111412;28;20091;-58
2023/03/07 06:30:51;;;;;;;7.82;4.88;;;;;;;3.05;100.00;99646.22;5111348;28;20435;-58
2023/03/07 06:33:17;;;;;;;4.57;3.78;;;;;;;3.02;100.00;99649.09;5112997;28;20023;-57
2023/03/07 06:35:43;;;;;;;3.63;3.33;;;;;;;2.96;100.00;99642.44;5113476;28;20073;-56
2023/03/07 06:38:11;;;;;;;4.60;3.45;;;;;;;2.90;100.00;99640.22;5111932;28;20470;-58
2023/03/07 06:40:37;;;;;;;3.92;3.00;;;;;;;2.87;100.00;99643.03;5109761;28;20027;-57
2023/03/07 06:43:02;;;;;;;4.57;3.35;;;;;;;2.83;100.00;99636.28;5113979;28;20084;-55
2023/03/07 06:45:28;;;;;;;4.63;4.20;;;;;;;2.80;100.00;99641.72;5113583;28;20408;-58
2023/03/07 06:47:54;;;;;;;5.75;4.38;;;;;;;2.75;100.00;99624.50;5113419;28;20562;-54
2023/03/07 06:50:19;;;;;;;4.82;4.32;;;;;;;2.74;100.00;99628.06;5110957;28;20477;-52
2023/03/07 06:52:45;;;;;;;6.93;5.22;;;;;;;2.70;100.00;99626.59;5113635;28;20389;-58
2023/03/07 06:55:11;;;;;;;6.35;4.82;;;;;;;2.67;100.00;99646.91;5115585;28;20035;-58
2023/03/07 06:57:36;;;;;;;6.50;4.68;;;;;;;2.64;100.00;99645.31;5109004;28;20374;-59
2023/03/07 07:00:05;;;;;;;6.00;4.47;;;;;;;2.59;100.00;99647.41;5106808;28;20047;-57
2023/03/07 07:02:31;;;;;;;5.90;4.70;;;;;;;2.54;100.00;99641.59;5115571;27;20429;-58
2023/03/07 07:04:57;;;;;;;4.78;4.28;;;;;;;2.51;100.00;99654.91;5113979;28;20053;-59
2023/03/07 07:07:23;;;;;;;5.38;4.15;;;;;;;2.44;100.00;99662.28;5113308;27;20041;-58
2023/03/07 07:09:48;;;;;;;5.53;4.70;;;;;;;2.40;100.00;99650.34;5106762;28;20138;-57
2023/03/07 07:12:14;;;;;;;4.82;4.32;;;;;;;2.39;100.00;99653.88;5106799;27;20459;-58
2023/03/07 07:14:39;;;;;;;4.93;4.43;;;;;;;2.36;100.00;99649.66;5109757;28;20044;-58
2023/03/07 07:17:05;;;;;;;5.60;5.00;;;;;;;2.31;100.00;99643.84;5111768;28;20024;-58
2023/03/07 07:19:30;;;;;;;7.18;5.07;;;;;;;2.29;100.00;99653.59;5119078;27;20444;-58
2023/03/07 07:21:56;;;;;;;5.70;5.10;;;;;;;2.27;100.00;99647.63;5111988;27;20477;-59
2023/03/07 07:24:22;;;;;;;5.95;4.72;;;;;;;2.25;100.00;99631.16;5116623;27;20401;-59
2023/03/07 07:26:47;;;;;;;5.88;5.10;;;;;;;2.22;100.00;99641.81;5111850;28;20063;-59
2023/03/07 07:29:13;;;;;;;5.63;4.97;;;;;;;2.17;100.00;99644.72;5114635;27;20470;-57
2023/03/07 07:31:38;;;;;;;6.50;5.20;;;;;;;2.13;100.00;99645.84;5113785;27;20043;-56
2023/03/07 07:34:03;;;;;;;6.70;4.97;;;;;;;2.11;100.00;99662.59;5108378;28;20493;-58
2023/03/07 07:36:29;;;;;;;5.82;5.22;;;;;;;2.06;100.00;99675.94;5108122;28;20038;-55
2023/03/07 07:38:54;;;;;;;6.40;5.70;;;;;;;2.00;100.00;99687.66;5111272;28;20042;-59
2023/03/07 07:41:20;;;;;;;7.43;5.65;;;;;;;1.93;100.00;99682.84;5111046;27;20040;-58
2023/03/07 07:43:47;;;;;;;6.30;5.28;;;;;;;1.89;100.00;99684.81;5113214;28;20481;-58
2023/03/07 07:46:12;;;;;;;6.82;5.88;;;;;;;1.81;100.00;99694.91;5112467;28;20034;-58
2023/03/07 07:48:38;;;;;;;8.27;5.80;;;;;;;1.76;100.00;99697.78;5111479;27;20044;-57
2023/03/07 07:51:03;;;;;;;7.45;5.93;;;;;;;1.71;100.00;99705.06;5114049;27;20449;-58
2023/03/07 07:53:30;;;;;;;6.30;5.07;;;;;;;1.65;100.00;99705.44;5102831;28;20047;-58
2023/03/07 07:55:55;;;;;;;7.22;5.70;;;;;;;1.63;100.00;99709.91;5096266;28;20031;-59
2023/03/07 07:58:20;;;;;;;6.93;5.90;;;;;;;1.64;100.00;99695.88;5112062;28;20080;-57
2023/03/07 08:00:46;;;;;;;6.38;5.10;;;;;;;1.62;100.00;99689.91;5108790;28;20066;-58
2023/03/07 08:03:11;;;;;;;7.72;5.63;;;;;;;1.61;100.00;99689.03;5111200;27;20032;-56
2023/03/07 08:05:37;;;;;;;6.93;5.53;;;;;;;1.62;100.00;99695.13;5112096;27;20063;-58
2023/03/07 08:08:02;;;;;;;8.52;6.13;;;;;;;1.64;100.00;99698.50;5107184;28;20087;-57
2023/03/07 08:10:28;;;;;;;7.32;6.25;;;;;;;1.64;100.00;99699.34;5105172;28;20044;-58
2023/03/07 08:12:53;;;;;;;8.00;6.20;;;;;;;1.67;100.00;99696.53;5113255;27;20085;-56
2023/03/07 08:15:22;;;;;;;7.78;6.18;;;;;;;1.69;100.00;99708.72;5104342;27;20046;-58
2023/03/07 08:17:50;;;;;;;7.10;6.38;;;;;;;1.70;100.00;99713.00;5108628;28;20137;-59
2023/03/07 08:20:15;;;;;;;8.05;6.43;;;;;;;1.71;100.00;99720.75;5111445;27;20058;-56
2023/03/07 08:22:42;;;;;;;7.63;5.97;;;;;;;1.71;100.00;99723.38;5114417;27;20036;-54
2023/03/07 08:25:16;;;;;;;8.35;6.40;;;;;;;1.72;100.00;99724.25;5109946;28;20043;-56
2023/03/07 08:27:41;;;;;;;7.35;6.63;;;;;;;1.71;100.00;99728.63;5110969;28;20028;-55
2023/03/07 08:30:07;;;;;;;8.30;7.03;;;;;;;1.73;100.00;99728.53;5108474;28;21490;-56
2023/03/07 08:32:33;;;;;;;7.80;6.65;;;;;;;1.74;100.00;99723.22;5111801;28;20501;-56
2023/03/07 08:34:58;;;;;;;7.97;6.50;;;;;;;1.77;100.00;99730.06;5110916;28;20063;-54
2023/03/07 08:37:23;;;;;;;8.75;6.05;;;;;;;1.77;100.00;99720.41;5112056;28;20243;-54
2023/03/07 08:39:48;;;;;;;8.63;6.32;;;;;;;1.76;100.00;99730.97;5111306;28;20126;-57
2023/03/07 08:42:14;;;;;;;6.47;5.70;;;;;;;1.77;100.00;99714.34;5111944;28;20047;-52
2023/03/07 08:44:39;;;;;;;8.65;5.88;;;;;;;1.81;100.00;99726.31;5109585;27;20937;-55
2023/03/07 08:47:05;;;;;;;8.52;6.43;;;;;;;1.83;100.00;99737.53;5109667;28;20028;-54
2023/03/07 08:49:30;;;;;;;7.30;6.18;;;;;;;1.84;100.00;99729.59;5109652;27;20035;-56
2023/03/07 08:51:55;;;;;;;7.22;6.43;;;;;;;1.81;100.00;99726.31;5109698;28;20035;-54
2023/03/07 08:54:21;;;;;;;7.93;6.40;;;;;;;1.82;100.00;99728.84;5105103;27;20398;-57
2023/03/07 08:56:46;;;;;;;8.15;7.35;;;;;;;1.82;100.00;99722.78;5109897;28;20114;-56
2023/03/07 08:59:11;;;;;;;8.55;7.53;;;;;;;1.79;100.00;99723.78;5111232;27;20386;-56
2023/03/07 09:01:36;;;;;;;9.50;7.72;;;;;;;1.80;100.00;99722.03;5110366;27;20034;-54
2023/03/07 09:04:03;;;;;;;8.70;7.80;;;;;;;1.81;100.00;99715.84;5109897;28;20130;-57
2023/03/07 09:06:29;;;;;;;9.40;8.38;;;;;;;1.83;100.00;99719.19;5112159;27;20023;-58
2023/03/07 09:08:54;;;;;;;9.70;8.70;;;;;;;1.82;100.00;99726.22;5108941;27;20068;-54
2023/03/07 09:11:21;;;;;;;10.40;8.95;;;;;;;1.81;100.00;99719.28;5112302;28;20473;-57
2023/03/07 09:13:46;;;;;;;10.90;9.48;;;;;;;1.82;100.00;99725.38;5111875;28;20031;-54
2023/03/07 09:16:12;;;;;;;10.45;9.25;;;;;;;1.87;100.00;99718.09;5112261;27;20034;-57
2023/03/07 09:18:37;;;;;;;10.38;9.27;;;;;;;1.90;100.00;99732.78;5106398;28;20034;-56
2023/03/07 09:21:04;;;;;;;12.18;10.30;;;;;;;1.89;100.00;99728.50;5097325;28;20032;-55
2023/03/07 09:23:29;;;;;;;10.45;9.43;;;;;;;1.91;100.00;99737.94;5112543;27;20045;-55
2023/03/07 09:25:58;;;;;;;11.10;10.00;;;;;;;1.91;100.00;99737.94;5110790;28;20489;-53
2023/03/07 09:28:24;;;;;;;;;;;;;;;2.02;100.00;99740.75;5103889;27;20405;-56
2023/03/07 09:30:49;;;;;;;11.13;9.90;;;;;;;1.97;100.00;99747.22;5100164;28;20006;-56
2023/03/07 09:33:14;;;;;;;11.13;10.00;;;;;;;1.95;100.00;99751.69;5111811;28;20285;-58
2023/03/07 09:35:40;;;;;;;12.50;9.52;;;;;;;1.97;100.00;99748.06;5110456;28;20072;-55
2023/03/07 09:38:05;;;;;;;12.13;10.85;;;;;;;2.00;100.00;99747.03;5111346;28;20122;-56
2023/03/07 09:40:34;;;;;;;11.20;10.10;;;;;;;2.06;100.00;99748.44;5110594;28;20063;-54
2023/03/07 09:43:03;;;;;;;;;;;;;;;2.13;100.00;99736.66;5111771;28;20035;-57
2023/03/07 09:45:44;;;;;;;10.63;9.10;;;;;;;2.09;100.00;99741.25;5102080;28;19915;-56
2023/03/07 09:48:29;;;;;;;10.50;9.40;;;;;;;2.08;100.00;99749.19;5112030;27;20101;-57
2023/03/07 09:51:00;;;;;;;12.32;9.75;;;;;;;2.10;100.00;99742.09;5106799;28;20044;-57
2023/03/07 09:53:37;;;;;;;11.30;9.82;;;;;;;2.14;100.00;99741.81;5106852;28;20030;-55
2023/03/07 09:56:10;;;;;;;11.95;10.43;;;;;;;2.14;100.00;99741.81;5103053;28;20121;-57
2023/03/07 09:58:41;;;;;;;10.43;9.35;;;;;;;2.17;100.00;99738.19;5109746;28;20032;-54
2023/03/07 10:01:11;;;;;;;11.43;10.20;;;;;;;2.16;100.00;99739.94;5109190;28;20058;-53
2023/03/07 10:03:55;;;;;;;11.75;10.10;;;;;;;2.20;100.00;99738.00;5109855;28;20114;-54
2023/03/07 10:06:36;;;;;;;13.25;11.27;;;;;;;2.23;100.00;99743.03;5109744;28;20078;-53
2023/03/07 10:09:06;;;;;;;11.73;9.88;;;;;;;2.24;100.00;99736.88;5104598;28;20118;-54
2023/03/07 10:11:37;;;;;;;;;;;;;;;2.33;100.00;99741.56;5115576;28;20042;-56
2023/03/07 10:14:35;;;;;;;9.32;8.32;;;;;;;2.28;100.00;99741.00;5107029;28;19912;-57
2023/03/07 10:17:03;;;;;;;9.32;7.93;;;;;;;2.27;100.00;99743.72;5106338;28;20043;-54
2023/03/07 10:19:51;;;;;;;9.37;8.47;;;;;;;2.31;100.00;99745.22;5113476;28;20027;-54
2023/03/07 10:22:32;;;;;;;9.32;8.30;;;;;;;2.29;100.00;99737.44;5112402;28;20031;-54
2023/03/07 10:25:16;;;;;;;7.68;6.88;;;;;;;2.29;100.00;99740.06;5112960;28;20038;-56
2023/03/07 10:27:45;;;;;;;8.02;7.13;;;;;;;2.21;100.00;99735.31;5112449;28;20088;-53
2023/03/07 10:30:16;;;;;;;7.80;7.00;;;;;;;2.22;100.00;99738.75;5112730;28;20063;-53
2023/03/07 10:32:54;;;;;;;6.78;6.18;;;;;;;2.16;100.00;99736.50;5099497;28;20043;-56
2023/03/07 10:35:25;;;;;;;6.75;6.13;;;;;;;2.16;100.00;99734.69;5110457;28;20043;-54
2023/03/07 10:38:09;;;;;;;6.90;6.20;;;;;;;2.11;100.00;99734.13;5112944;27;20390;-54
2023/03/07 10:40:57;;;;;;;7.18;6.47;;;;;;;2.20;100.00;99733.59;5114149;28;20126;-55
2023/03/07 10:43:30;;;;;;;6.87;6.17;;;;;;;2.21;100.00;99739.66;5107595;28;20039;-55
2023/03/07 10:46:17;;;;;;;6.32;5.72;;;;;;;2.25;100.00;99735.09;5102813;28;20085;-55
2023/03/07 10:48:47;;;;;;;6.68;5.68;;;;;;;2.18;100.00;99740.72;5112996;28;20039;-54
2023/03/07 10:51:49;;;;;;;6.15;5.55;;;;;;;2.21;100.00;99743.16;5116334;27;20031;-53
2023/03/07 10:54:20;;;;;;;6.30;5.68;;;;;;;2.21;100.00;99740.53;5109658;28;20035;-55
2023/03/07 10:57:05;;;;;;;6.40;5.70;;;;;;;2.20;100.00;99744.09;5119015;27;20067;-54
2023/03/07 10:59:30;;;;;;;8.70;5.68;;;;;;;2.24;100.00;99747.34;5108068;28;20403;-57
2023/03/07 11:01:58;;;;;;;7.15;6.15;;;;;;;2.27;100.00;99746.34;5120790;27;20043;-54
2023/03/07 11:04:26;;;;;;;7.88;6.45;;;;;;;2.34;100.00;99745.03;5112792;27;20434;-58
2023/03/07 11:07:26;;;;;;;6.32;5.72;;;;;;;2.42;100.00;99745.41;5098059;28;20031;-57
2023/03/07 11:09:52;;;;;;;7.95;6.57;;;;;;;2.44;100.00;99745.31;5108190;27;20035;-57
2023/03/07 11:12:22;;;;;;;6.65;5.95;;;;;;;2.46;100.00;99743.44;5090889;28;20493;-58
2023/03/07 11:14:49;;;;;;;6.35;5.75;;;;;;;2.49;100.00;99748.50;5111396;27;20019;-58
2023/03/07 11:17:39;;;;;;;5.95;5.38;;;;;;;2.54;100.00;99744.66;5113806;27;20040;-55
2023/03/07 11:20:29;;;;;;;5.18;4.68;;;;;;;2.59;100.00;99745.22;5100710;28;20059;-57
2023/03/07 11:23:12;;;;;;;;;;;;;;;2.70;100.00;99743.75;5114423;28;20486;-57
2023/03/07 11:25:38;;;;;;;5.18;4.68;;;;;;;2.70;100.00;99741.94;5115182;27;19911;-57
2023/03/07 11:28:22;;;;;;;6.18;5.57;;;;;;;2.81;100.00;99746.53;5111864;28;20093;-55
2023/03/07 11:30:52;;;;;;;5.82;5.22;;;;;;;2.90;100.00;99743.34;5115080;27;20038;-57
2023/03/07 11:33:33;;;;;;;5.57;5.10;;;;;;;2.92;100.00;99748.50;5109059;27;20093;-58
2023/03/07 11:36:12;;;;;;;7.10;5.30;;;;;;;2.97;100.00;99751.66;5108109;27;20038;-58
2023/03/07 11:38:56;;;;;;;5.38;4.88;;;;;;;3.06;100.00;99747.63;5110114;28;20040;-57